Time;durP1;ratioP1;P1;durP2;ratioP2;P2;SDS_P1;SDS_P2;PMS_P1;PMS_P2;Temp;Humidity;BMP_temperature;BMP_pressure;BME280_temperature;BME280_humidity;BME280_pressure;Samples;Min_cycle;Max_cycle;Signal;HPM_P1;HPM_P2
2023/05/04 00:00:04;;;;;;;1.52;1.45;;;20.20;43.60;;;;;;5066989;28;45304;-64
2023/05/04 00:02:31;;;;;;;3.35;1.50;;;20.20;43.70;;;;;;5066670;28;47304;-63
2023/05/04 00:04:58;;;;;;;1.55;1.45;;;20.20;43.70;;;;;;5066670;28;45364;-64
2023/05/04 00:07:25;;;;;;;1.73;1.52;;;20.20;43.80;;;;;;5066978;28;45376;-64
2023/05/04 00:09:52;;;;;;;1.60;1.50;;;20.20;43.80;;;;;;5067002;28;45494;-63
2023/05/04 00:12:20;;;;;;;1.40;1.30;;;20.10;43.80;;;;;;5066416;28;46415;-63
2023/05/04 00:14:47;;;;;;;1.55;1.40;;;20.20;43.90;;;;;;5066716;28;45493;-63
2023/05/04 00:17:14;;;;;;;1.40;1.30;;;20.10;43.90;;;;;;5066691;28;45331;-63
2023/05/04 00:19:41;;;;;;;1.60;1.40;;;20.10;43.90;;;;;;5066937;28;45378;-63
2023/05/04 00:22:08;;;;;;;1.98;1.55;;;20.10;44.00;;;;;;5066195;28;45311;-63
2023/05/04 00:24:35;;;;;;;1.45;1.38;;;20.10;44.10;;;;;;5066519;28;45303;-63
2023/05/04 00:27:02;;;;;;;1.70;1.60;;;20.00;44.10;;;;;;5066488;28;45263;-64
2023/05/04 00:29:30;;;;;;;1.50;1.40;;;20.00;44.20;;;;;;5066756;28;45340;-63
2023/05/04 00:31:57;;;;;;;1.50;1.40;;;20.00;44.20;;;;;;5066267;28;45429;-63
2023/05/04 00:34:23;;;;;;;1.52;1.33;;;20.00;44.20;;;;;;5066539;28;45332;-63
2023/05/04 00:36:54;;;;;;;1.98;1.50;;;20.00;44.30;;;;;;5066436;28;45330;-63
2023/05/04 00:39:21;;;;;;;1.63;1.52;;;20.00;44.30;;;;;;5066536;28;45353;-64
2023/05/04 00:41:48;;;;;;;1.95;1.48;;;20.00;44.40;;;;;;5065794;28;46745;-64
2023/05/04 00:44:15;;;;;;;1.50;1.40;;;19.90;44.40;;;;;;5065721;28;45315;-64
2023/05/04 00:46:43;;;;;;;1.60;1.50;;;19.90;44.40;;;;;;5066243;28;45269;-63
2023/05/04 00:49:10;;;;;;;1.33;1.33;;;19.90;44.40;;;;;;5066459;28;45340;-63
2023/05/04 00:51:36;;;;;;;1.33;1.23;;;19.90;44.40;;;;;;5065863;28;46417;-65
2023/05/04 00:54:03;;;;;;;1.50;1.40;;;19.90;44.50;;;;;;5066007;28;45381;-65
2023/05/04 00:56:31;;;;;;;1.83;1.67;;;19.80;44.50;;;;;;5066036;28;45266;-66
2023/05/04 00:58:58;;;;;;;1.40;1.40;;;19.80;44.50;;;;;;5066283;28;45325;-65
2023/05/04 01:01:25;;;;;;;1.50;1.40;;;19.80;44.60;;;;;;5065768;28;46606;-66
2023/05/04 01:03:54;;;;;;;1.42;1.33;;;19.80;44.60;;;;;;5065919;28;45285;-64
2023/05/04 01:06:25;;;;;;;1.58;1.40;;;19.70;44.60;;;;;;5065927;28;45419;-65
2023/05/04 01:08:56;;;;;;;1.40;1.30;;;19.70;44.60;;;;;;5066151;28;45448;-65
2023/05/04 01:11:26;;;;;;;1.58;1.48;;;19.70;44.70;;;;;;5065441;28;47599;-65
2023/05/04 01:13:53;;;;;;;1.27;1.17;;;19.70;44.80;;;;;;5065710;28;45258;-65
2023/05/04 01:16:20;;;;;;;1.63;1.52;;;19.70;44.90;;;;;;5065918;28;45325;-65
2023/05/04 01:18:47;;;;;;;1.42;1.33;;;19.60;44.80;;;;;;5065958;28;45308;-65
2023/05/04 01:21:15;;;;;;;1.70;1.60;;;19.60;44.80;;;;;;5065275;28;46389;-65
2023/05/04 01:23:43;;;;;;;1.58;1.48;;;19.60;44.80;;;;;;5065637;28;45372;-66
2023/05/04 01:26:13;;;;;;;3.33;1.60;;;19.60;44.90;;;;;;5065796;28;45304;-65
2023/05/04 01:28:42;;;;;;;1.58;1.48;;;19.60;45.00;;;;;;5065413;28;45438;-65
2023/05/04 01:31:10;;;;;;;1.55;1.30;;;19.60;45.00;;;;;;5065605;28;45316;-65
2023/05/04 01:33:36;;;;;;;1.38;1.30;;;19.50;45.00;;;;;;5065443;28;45256;-65
2023/05/04 01:36:03;;;;;;;1.30;1.27;;;19.50;45.00;;;;;;5065612;28;45301;-65
2023/05/04 01:38:30;;;;;;;1.35;1.35;;;19.50;45.10;;;;;;5065773;28;45371;-66
2023/05/04 01:40:58;;;;;;;1.50;1.30;;;19.50;45.10;;;;;;5065210;28;45321;-65
2023/05/04 01:43:25;;;;;;;1.70;1.60;;;19.40;45.10;;;;;;5065520;28;45281;-65
2023/05/04 01:45:52;;;;;;;1.45;1.35;;;19.40;45.10;;;;;;5065416;28;45135;-65
2023/05/04 01:48:19;;;;;;;1.33;1.33;;;19.40;45.20;;;;;;5065472;28;45385;-65
2023/05/04 01:50:46;;;;;;;1.85;1.40;;;19.40;45.20;;;;;;5065014;28;45434;-66
2023/05/04 01:53:12;;;;;;;1.50;1.40;;;19.40;45.30;;;;;;5065228;28;45321;-65
2023/05/04 01:55:39;;;;;;;2.47;1.40;;;19.30;45.20;;;;;;5066148;28;45175;-65
2023/05/04 01:58:07;;;;;;;1.30;1.30;;;19.30;45.20;;;;;;5066498;28;45345;-66
2023/05/04 02:00:34;;;;;;;1.38;1.33;;;19.30;45.30;;;;;;5068493;28;45573;-66
2023/05/04 02:03:01;;;;;;;1.60;1.50;;;19.30;45.30;;;;;;5068599;28;45447;-65
2023/05/04 02:05:28;;;;;;;1.40;1.30;;;19.30;45.30;;;;;;5068800;28;45323;-65
2023/05/04 02:07:55;;;;;;;1.83;1.73;;;19.30;45.40;;;;;;5069055;28;45372;-65
2023/05/04 02:10:22;;;;;;;1.70;1.60;;;19.30;45.50;;;;;;5068612;28;46155;-65
2023/05/04 02:12:48;;;;;;;1.30;1.30;;;19.20;45.40;;;;;;5068400;28;45336;-65
2023/05/04 02:15:17;;;;;;;1.60;1.50;;;19.20;45.40;;;;;;5068706;28;45292;-66
2023/05/04 02:17:44;;;;;;;1.58;1.48;;;19.20;45.50;;;;;;5068764;28;45369;-66
2023/05/04 02:20:11;;;;;;;1.35;1.30;;;19.20;45.50;;;;;;5068479;28;46701;-65
2023/05/04 02:22:38;;;;;;;2.00;1.15;;;19.20;45.60;;;;;;5068123;28;45462;-65
2023/05/04 02:25:06;;;;;;;1.40;1.30;;;19.10;45.60;;;;;;5068566;28;45295;-65
2023/05/04 02:27:33;;;;;;;1.40;1.30;;;19.10;45.60;;;;;;5068432;28;45258;-65
2023/05/04 02:29:59;;;;;;;1.38;1.38;;;19.10;45.60;;;;;;5068117;28;46665;-65
2023/05/04 02:32:28;;;;;;;1.50;1.40;;;19.10;45.60;;;;;;5068165;28;45275;-65
2023/05/04 02:34:54;;;;;;;1.58;1.50;;;19.10;45.60;;;;;;5068537;28;45391;-64
2023/05/04 02:37:21;;;;;;;2.00;1.38;;;19.10;45.70;;;;;;5068422;28;45448;-64
2023/05/04 02:39:48;;;;;;;1.58;1.48;;;19.10;46.40;;;;;;5068087;28;45316;-65
2023/05/04 02:42:15;;;;;;;1.88;1.45;;;19.10;45.70;;;;;;5067954;28;45332;-66
2023/05/04 02:44:42;;;;;;;2.05;1.40;;;19.00;45.70;;;;;;5065734;28;45360;-65
2023/05/04 02:47:09;;;;;;;1.50;1.40;;;19.00;45.70;;;;;;5068320;28;45424;-65
2023/05/04 02:49:37;;;;;;;1.52;1.45;;;19.00;45.80;;;;;;5067871;28;45315;-63
2023/05/04 02:52:04;;;;;;;1.30;1.25;;;19.00;45.90;;;;;;5068263;28;45420;-64
2023/05/04 02:54:31;;;;;;;1.30;1.30;;;19.00;45.80;;;;;;5068159;28;45278;-63
2023/05/04 02:56:57;;;;;;;1.50;1.40;;;19.00;45.90;;;;;;5068109;28;45393;-63
2023/05/04 02:59:24;;;;;;;1.55;1.45;;;18.90;45.90;;;;;;5067684;28;46830;-63
2023/05/04 03:01:51;;;;;;;1.60;1.50;;;18.90;45.90;;;;;;5067735;28;45375;-63
2023/05/04 03:04:18;;;;;;;1.40;1.30;;;18.90;45.90;;;;;;5067894;28;45380;-63
2023/05/04 03:06:46;;;;;;;1.95;1.50;;;18.90;45.90;;;;;;5067594;28;45313;-64
2023/05/04 03:09:13;;;;;;;1.48;1.40;;;18.90;46.60;;;;;;5067646;28;45321;-63
2023/05/04 03:11:40;;;;;;;1.30;1.20;;;18.90;46.00;;;;;;5067575;28;45410;-65
2023/05/04 03:14:07;;;;;;;1.70;1.60;;;18.90;46.00;;;;;;5068190;28;45321;-64
2023/05/04 03:16:34;;;;;;;1.35;1.33;;;18.80;46.00;;;;;;5067826;28;45246;-63
2023/05/04 03:19:00;;;;;;;1.50;1.40;;;18.80;46.10;;;;;;5067415;28;46735;-64
2023/05/04 03:21:28;;;;;;;1.52;1.42;;;18.80;46.10;;;;;;5067335;28;45314;-63
2023/05/04 03:23:56;;;;;;;1.52;1.42;;;18.80;46.10;;;;;;5067576;28;45376;-63
2023/05/04 03:26:23;;;;;;;1.50;1.40;;;18.80;46.10;;;;;;5067635;28;45464;-65
2023/05/04 03:28:49;;;;;;;1.63;1.52;;;18.80;46.10;;;;;;5067076;28;46380;-63
2023/05/04 03:31:16;;;;;;;1.42;1.25;;;18.70;46.20;;;;;;5067130;28;46061;-64
2023/05/04 03:33:43;;;;;;;1.45;1.35;;;18.80;46.20;;;;;;5067382;28;45269;-64
2023/05/04 03:36:10;;;;;;;1.77;1.50;;;18.70;46.10;;;;;;5067563;28;45372;-64
2023/05/04 03:38:37;;;;;;;1.40;1.30;;;18.70;46.20;;;;;;5067067;28;45538;-63
2023/05/04 03:41:05;;;;;;;1.50;1.40;;;18.70;46.20;;;;;;5067274;28;45625;-66
2023/05/04 03:43:32;;;;;;;1.50;1.40;;;18.70;46.20;;;;;;5067292;28;45289;-63
2023/05/04 03:45:58;;;;;;;1.67;1.58;;;18.60;46.20;;;;;;5067526;28;45288;-63
2023/05/04 03:48:25;;;;;;;1.33;1.23;;;18.60;46.90;;;;;;5066816;28;46727;-63
2023/05/04 03:50:52;;;;;;;1.20;1.20;;;18.60;46.30;;;;;;5066916;28;45418;-63
2023/05/04 03:53:19;;;;;;;1.30;1.20;;;18.60;46.30;;;;;;5067009;28;45274;-63
2023/05/04 03:55:46;;;;;;;1.60;1.50;;;18.60;46.30;;;;;;5067246;28;45667;-65
2023/05/04 03:58:14;;;;;;;1.52;1.42;;;18.60;46.30;;;;;;5066710;28;45279;-64
2023/05/04 04:00:41;;;;;;;1.45;1.35;;;18.60;46.40;;;;;;5066876;28;45392;-66
2023/05/04 04:03:08;;;;;;;1.40;1.30;;;18.50;46.40;;;;;;5066924;28;45445;-64
2023/05/04 04:05:35;;;;;;;1.40;1.30;;;18.50;46.40;;;;;;5067095;28;45245;-65
2023/05/04 04:08:02;;;;;;;1.50;1.40;;;18.50;46.40;;;;;;5066620;28;45318;-65
2023/05/04 04:10:28;;;;;;;1.35;1.25;;;18.50;46.40;;;;;;5066802;28;45240;-64
2023/05/04 04:12:55;;;;;;;1.40;1.30;;;18.50;46.50;;;;;;5066539;28;45363;-64
2023/05/04 04:15:23;;;;;;;1.20;1.10;;;18.50;46.50;;;;;;5066879;28;45369;-64
2023/05/04 04:17:50;;;;;;;1.40;1.30;;;18.40;46.40;;;;;;5065906;28;45302;-65
2023/05/04 04:20:17;;;;;;;1.58;1.48;;;18.40;46.50;;;;;;5066165;28;45321;-63
2023/05/04 04:22:44;;;;;;;1.30;1.25;;;18.40;46.50;;;;;;5066573;28;45337;-63
2023/05/04 04:25:11;;;;;;;1.60;1.50;;;18.40;46.60;;;;;;5066781;28;45459;-63
2023/05/04 04:27:38;;;;;;;2.53;1.48;;;18.40;46.70;;;;;;5066166;28;45312;-64
2023/05/04 04:30:05;;;;;;;2.88;1.60;;;18.40;46.60;;;;;;5066393;28;45398;-64
2023/05/04 04:32:33;;;;;;;1.73;1.33;;;18.30;46.60;;;;;;5066416;28;45380;-63
2023/05/04 04:35:00;;;;;;;1.50;1.40;;;18.30;46.70;;;;;;5066604;28;45473;-63
2023/05/04 04:37:27;;;;;;;1.90;1.30;;;18.30;46.70;;;;;;5066236;28;45428;-63
2023/05/04 04:39:54;;;;;;;1.30;1.30;;;18.30;46.70;;;;;;5066097;28;45357;-64
2023/05/04 04:42:21;;;;;;;1.30;1.20;;;18.30;46.80;;;;;;5066211;28;45277;-63
2023/05/04 04:44:49;;;;;;;1.40;1.30;;;18.30;46.70;;;;;;5066569;28;45378;-63
2023/05/04 04:47:16;;;;;;;1.52;1.42;;;18.30;46.70;;;;;;5066060;28;46705;-63
2023/05/04 04:49:44;;;;;;;2.13;1.50;;;18.30;46.80;;;;;;5065962;28;45360;-63
2023/05/04 04:52:11;;;;;;;1.40;1.30;;;18.30;46.70;;;;;;5066067;28;45288;-63
2023/05/04 04:54:38;;;;;;;1.60;1.50;;;18.30;46.80;;;;;;5066415;28;45508;-65
2023/05/04 04:57:05;;;;;;;1.17;1.17;;;18.20;46.70;;;;;;5065869;28;45379;-63
2023/05/04 04:59:32;;;;;;;2.65;1.40;;;18.20;46.70;;;;;;5065768;28;45341;-63
2023/05/04 05:01:59;;;;;;;1.17;1.17;;;18.20;46.70;;;;;;5065790;28;45428;-63
2023/05/04 05:04:26;;;;;;;1.27;1.23;;;18.20;46.80;;;;;;5066329;28;45291;-63
2023/05/04 05:06:54;;;;;;;1.60;1.50;;;18.20;46.70;;;;;;5065762;28;47307;-63
2023/05/04 05:09:21;;;;;;;1.20;1.10;;;18.20;46.80;;;;;;5065782;28;45386;-63
2023/05/04 05:11:48;;;;;;;1.50;1.40;;;18.20;46.80;;;;;;5063124;28;45482;-63
2023/05/04 05:14:14;;;;;;;1.67;1.30;;;18.20;46.80;;;;;;5066044;28;45341;-63
2023/05/04 05:16:41;;;;;;;1.52;1.42;;;18.20;46.80;;;;;;5065590;28;45250;-63
2023/05/04 05:19:08;;;;;;;1.50;1.40;;;18.20;46.80;;;;;;5065804;28;45408;-64
2023/05/04 05:21:35;;;;;;;1.63;1.15;;;18.20;46.80;;;;;;5065598;28;45282;-64
2023/05/04 05:24:04;;;;;;;1.30;1.20;;;18.20;46.80;;;;;;5065765;28;45383;-63
2023/05/04 05:26:30;;;;;;;1.20;1.20;;;18.20;46.80;;;;;;5065832;28;47741;-63
2023/05/04 05:28:57;;;;;;;1.52;1.42;;;18.20;46.80;;;;;;5065474;28;45329;-63
2023/05/04 05:31:24;;;;;;;1.45;1.35;;;18.20;46.80;;;;;;5065224;28;45246;-63
2023/05/04 05:33:51;;;;;;;1.30;1.20;;;18.20;46.80;;;;;;5065915;28;45451;-63
2023/05/04 05:36:18;;;;;;;1.50;1.40;;;18.20;46.80;;;;;;5065315;28;46427;-63
2023/05/04 05:38:45;;;;;;;1.80;1.20;;;18.20;46.80;;;;;;5065299;28;45442;-63
2023/05/04 05:41:14;;;;;;;1.30;1.20;;;18.20;46.70;;;;;;5065352;28;45274;-63
2023/05/04 05:43:41;;;;;;;1.15;1.15;;;18.20;46.70;;;;;;5065642;28;45511;-63
2023/05/04 05:46:07;;;;;;;1.40;1.30;;;18.20;46.70;;;;;;5065199;28;46413;-63
2023/05/04 05:48:34;;;;;;;1.50;1.40;;;18.20;46.70;;;;;;5065230;28;45304;-64
2023/05/04 05:51:01;;;;;;;1.50;1.40;;;18.20;46.70;;;;;;5065551;28;45364;-63
2023/05/04 05:53:28;;;;;;;2.50;1.45;;;18.20;46.70;;;;;;5065646;28;45293;-63
2023/05/04 05:55:55;;;;;;;1.40;1.30;;;18.20;46.70;;;;;;5065169;28;47082;-63
2023/05/04 05:58:23;;;;;;;1.40;1.30;;;18.20;46.70;;;;;;5065039;28;45383;-63
2023/05/04 06:00:50;;;;;;;1.50;1.40;;;18.20;46.70;;;;;;5065189;28;45250;-63
2023/05/04 06:03:17;;;;;;;1.45;1.35;;;18.20;46.70;;;;;;5065304;28;45365;-63
2023/05/04 06:05:43;;;;;;;1.60;1.50;;;18.20;46.70;;;;;;5065199;28;46149;-63
2023/05/04 06:08:10;;;;;;;1.50;1.40;;;18.20;46.70;;;;;;5065574;28;45670;-63
2023/05/04 06:10:37;;;;;;;1.63;1.40;;;18.20;46.70;;;;;;5065260;28;45342;-64
2023/05/04 06:13:04;;;;;;;1.40;1.30;;;18.20;46.70;;;;;;5065272;28;45366;-63
2023/05/04 06:15:33;;;;;;;1.88;1.45;;;18.20;46.70;;;;;;5064852;28;46390;-63
2023/05/04 06:18:00;;;;;;;1.60;1.50;;;18.20;46.70;;;;;;5064846;28;45352;-63
2023/05/04 06:20:27;;;;;;;1.23;1.13;;;18.20;46.80;;;;;;5064935;28;45313;-63
2023/05/04 06:22:54;;;;;;;1.13;1.08;;;18.20;46.80;;;;;;5064853;28;45428;-62
2023/05/04 06:25:21;;;;;;;1.60;1.50;;;18.20;46.80;;;;;;5064617;28;46666;-63
2023/05/04 06:27:48;;;;;;;1.17;1.17;;;18.20;46.90;;;;;;5064461;28;45249;-63
2023/05/04 06:30:15;;;;;;;1.50;1.40;;;18.20;46.90;;;;;;5065079;28;45354;-62
2023/05/04 06:32:44;;;;;;;1.30;1.20;;;18.30;46.90;;;;;;5065014;28;45408;-63
2023/05/04 06:35:10;;;;;;;1.80;1.70;;;18.30;47.50;;;;;;5064515;28;46714;-63
2023/05/04 06:37:37;;;;;;;2.28;1.35;;;18.30;47.50;;;;;;5064465;28;45328;-64
2023/05/04 06:40:06;;;;;;;1.40;1.30;;;18.30;46.90;;;;;;5064567;28;45377;-64
2023/05/04 06:42:32;;;;;;;1.42;1.30;;;18.30;46.90;;;;;;5066688;28;45348;-66
2023/05/04 06:44:59;;;;;;;2.10;1.40;;;18.30;47.20;;;;;;5067829;28;45330;-65
2023/05/04 06:47:26;;;;;;;1.55;1.42;;;18.40;47.40;;;;;;5067843;28;45379;-64
2023/05/04 06:49:54;;;;;;;1.60;1.50;;;18.40;47.40;;;;;;5068037;28;45386;-66
2023/05/04 06:52:21;;;;;;;1.85;1.60;;;18.50;47.30;;;;;;5068003;28;45380;-65
2023/05/04 06:54:48;;;;;;;1.63;1.30;;;18.60;47.40;;;;;;5067682;28;46670;-67
2023/05/04 06:57:15;;;;;;;1.63;1.35;;;18.60;47.50;;;;;;5067455;28;45333;-68
2023/05/04 06:59:42;;;;;;;2.35;1.50;;;18.60;47.30;;;;;;5068435;28;45205;-68
2023/05/04 07:02:08;;;;;;;2.38;1.77;;;18.70;47.10;;;;;;5067732;28;45316;-67
2023/05/04 07:04:35;;;;;;;2.30;1.40;;;18.80;46.90;;;;;;5067259;28;46353;-68
2023/05/04 07:07:04;;;;;;;3.00;1.38;;;18.90;46.90;;;;;;5067551;28;45455;-65
2023/05/04 07:09:31;;;;;;;1.70;1.60;;;18.90;46.60;;;;;;5067601;28;45293;-65
2023/05/04 07:11:57;;;;;;;1.50;1.30;;;19.00;47.00;;;;;;5067804;28;45343;-66
2023/05/04 07:14:24;;;;;;;2.00;1.60;;;19.00;46.50;;;;;;5067222;28;45441;-65
2023/05/04 07:16:51;;;;;;;1.40;1.30;;;19.00;46.40;;;;;;5067409;28;45421;-64
2023/05/04 07:19:18;;;;;;;1.67;1.58;;;19.00;46.40;;;;;;5067452;28;45411;-65
2023/05/04 07:21:46;;;;;;;1.63;1.52;;;19.10;46.40;;;;;;5067386;28;45436;-65
2023/05/04 07:24:14;;;;;;;3.03;1.35;;;19.10;46.60;;;;;;5067003;28;45575;-65
2023/05/04 07:26:41;;;;;;;1.60;1.50;;;19.00;46.70;;;;;;5067050;28;45592;-64
2023/05/04 07:29:08;;;;;;;1.52;1.42;;;19.10;46.50;;;;;;5067162;28;45396;-65
2023/05/04 07:31:35;;;;;;;3.45;1.52;;;19.10;46.40;;;;;;5067001;28;45530;-70
2023/05/04 07:34:02;;;;;;;2.33;1.60;;;19.10;46.60;;;;;;5067086;28;45780;-67
2023/05/04 07:36:29;;;;;;;5.43;1.73;;;19.20;46.80;;;;;;5067326;28;45274;-69
2023/05/04 07:38:56;;;;;;;1.63;1.40;;;19.20;47.40;;;;;;5066878;28;45401;-66
2023/05/04 07:41:25;;;;;;;2.35;1.48;;;19.30;46.90;;;;;;5067045;28;45456;-68
2023/05/04 07:43:52;;;;;;;3.65;1.92;;;19.30;46.70;;;;;;5067015;28;46503;-67
2023/05/04 07:46:18;;;;;;;5.18;1.50;;;19.30;46.90;;;;;;5066895;28;45258;-67
2023/05/04 07:48:45;;;;;;;3.35;1.70;;;19.30;47.00;;;;;;5067369;28;45278;-67
2023/05/04 07:51:13;;;;;;;1.80;1.70;;;19.40;46.90;;;;;;5067106;28;45437;-67
2023/05/04 07:53:41;;;;;;;4.63;2.08;;;19.40;46.90;;;;;;5065246;28;46485;-69
2023/05/04 07:56:10;;;;;;;2.60;1.80;;;19.40;46.80;;;;;;5067339;28;45326;-68
2023/05/04 07:58:38;;;;;;;1.88;1.77;;;19.40;46.70;;;;;;5067150;28;45396;-68
2023/05/04 08:01:05;;;;;;;4.13;1.80;;;19.40;46.60;;;;;;5066896;28;45428;-68
2023/05/04 08:03:32;;;;;;;2.38;2.17;;;19.50;46.70;;;;;;5066338;28;46419;-67
2023/05/04 08:05:58;;;;;;;3.63;2.40;;;19.60;46.70;;;;;;5066904;28;45313;-70
2023/05/04 08:08:25;;;;;;;3.05;1.73;;;19.60;46.60;;;;;;5066791;28;45315;-72
2023/05/04 08:10:53;;;;;;;4.05;1.90;;;19.60;46.40;;;;;;5067144;28;45395;-68
2023/05/04 08:13:19;;;;;;;2.25;2.05;;;19.70;46.80;;;;;;5066139;28;45546;-66
2023/05/04 08:15:48;;;;;;;3.33;2.20;;;19.70;46.70;;;;;;5066498;28;45343;-68
2023/05/04 08:18:15;;;;;;;4.10;2.58;;;19.70;46.40;;;;;;5066569;28;45360;-68
2023/05/04 08:20:42;;;;;;;3.80;3.00;;;19.80;46.60;;;;;;5066566;28;45400;-68
2023/05/04 08:23:09;;;;;;;5.88;3.58;;;19.80;46.90;;;;;;5066186;28;47783;-67
2023/05/04 08:25:35;;;;;;;6.20;3.88;;;19.70;47.10;;;;;;5066042;28;45305;-68
2023/05/04 08:28:03;;;;;;;5.15;4.05;;;19.70;47.20;;;;;;5065833;28;45339;-68
2023/05/04 08:30:30;;;;;;;4.00;3.13;;;19.70;47.40;;;;;;5066382;28;45323;-68
2023/05/04 08:32:59;;;;;;;7.78;3.42;;;19.70;47.30;;;;;;5066285;28;45575;-66
2023/05/04 08:35:26;;;;;;;3.80;3.38;;;19.70;47.40;;;;;;5066031;28;45411;-66
2023/05/04 08:37:53;;;;;;;4.38;3.90;;;19.70;47.40;;;;;;5066260;28;45451;-67
2023/05/04 08:40:22;;;;;;;5.35;3.70;;;19.70;47.20;;;;;;5066256;28;45364;-68
2023/05/04 08:42:51;;;;;;;3.95;3.65;;;19.70;47.20;;;;;;5065755;28;46470;-68
2023/05/04 08:45:17;;;;;;;5.28;4.05;;;19.80;47.20;;;;;;5065823;28;45351;-68
2023/05/04 08:47:44;;;;;;;3.95;3.35;;;19.70;47.20;;;;;;5065971;28;45320;-65
2023/05/04 08:50:12;;;;;;;5.97;3.20;;;19.80;47.30;;;;;;5066116;28;45627;-67
2023/05/04 08:52:43;;;;;;;4.65;2.65;;;19.80;47.20;;;;;;5065661;28;46650;-66
2023/05/04 08:55:10;;;;;;;3.38;2.80;;;19.80;47.10;;;;;;5065829;28;45327;-66
2023/05/04 08:57:37;;;;;;;2.67;2.47;;;19.90;46.90;;;;;;5065973;28;45401;-67
2023/05/04 09:00:05;;;;;;;3.55;2.60;;;19.90;46.80;;;;;;5065204;28;45416;-68
2023/05/04 09:02:32;;;;;;;4.20;2.20;;;19.90;46.70;;;;;;5059176;28;46461;-67
2023/05/04 09:04:59;;;;;;;5.18;2.53;;;19.90;46.80;;;;;;5063377;28;45404;-67
2023/05/04 09:07:27;;;;;;;2.22;2.03;;;19.90;46.80;;;;;;5064212;28;45440;-68
2023/05/04 09:09:55;;;;;;;4.57;2.60;;;19.90;46.90;;;;;;5061421;28;45444;-67
2023/05/04 09:12:22;;;;;;;4.40;2.63;;;20.00;47.20;;;;;;5063910;28;45677;-69
2023/05/04 09:14:49;;;;;;;3.17;2.55;;;20.00;47.20;;;;;;5063969;28;45311;-68
2023/05/04 09:17:24;;;;;;;4.70;2.50;;;20.10;47.20;;;;;;5064613;28;45297;-68
2023/05/04 09:19:57;;;;;;;3.60;2.50;;;20.10;47.10;;;;;;5063651;28;45392;-69
2023/05/04 09:22:24;;;;;;;4.93;2.50;;;20.20;47.30;;;;;;5064367;28;45594;-68
2023/05/04 09:24:52;;;;;;;3.25;2.95;;;20.20;47.30;;;;;;5063590;28;45331;-68
2023/05/04 09:27:19;;;;;;;6.82;3.22;;;20.20;47.30;;;;;;5064831;28;45673;-67
2023/05/04 09:29:53;;;;;;;5.13;2.95;;;20.30;47.40;;;;;;5054381;28;45439;-68
2023/05/04 09:32:19;;;;;;;3.20;2.90;;;20.30;47.60;;;;;;5062745;28;45361;-67
2023/05/04 09:34:50;;;;;;;4.25;3.00;;;20.40;47.80;;;;;;5064635;28;45303;-67
2023/05/04 09:37:17;;;;;;;8.90;3.30;;;20.40;47.90;;;;;;5064690;28;45351;-67
2023/05/04 09:39:53;;;;;;;4.82;3.50;;;20.50;48.10;;;;;;5064329;28;45363;-67
2023/05/04 09:42:21;;;;;;;4.45;3.03;;;20.50;48.40;;;;;;5064701;28;46702;-68
2023/05/04 09:45:00;;;;;;;4.15;2.70;;;20.60;48.50;;;;;;5063912;28;45496;-68
2023/05/04 09:47:34;;;;;;;6.03;3.03;;;20.60;48.60;;;;;;5059391;28;45366;-67
2023/05/04 09:50:11;;;;;;;3.80;3.00;;;20.60;48.60;;;;;;5065117;28;45377;-68
2023/05/04 09:52:38;;;;;;;3.72;3.15;;;20.70;48.60;;;;;;5063894;28;46425;-67
2023/05/04 09:55:07;;;;;;;4.95;3.17;;;20.70;48.40;;;;;;5063004;28;45324;-66
2023/05/04 09:57:34;;;;;;;3.08;2.72;;;20.80;48.40;;;;;;5060968;28;45373;-66
2023/05/04 10:00:01;;;;;;;3.92;2.92;;;20.80;48.40;;;;;;5059547;28;45457;-67
2023/05/04 10:02:29;;;;;;;3.92;2.75;;;20.80;48.40;;;;;;5062543;28;45355;-67
2023/05/04 10:04:57;;;;;;;3.20;2.85;;;20.90;48.70;;;;;;5057750;28;45957;-68
2023/05/04 10:07:24;;;;;;;4.82;2.75;;;20.90;49.00;;;;;;5059723;28;45584;-68
2023/05/04 10:09:51;;;;;;;4.07;2.50;;;21.00;49.30;;;;;;5064750;28;45399;-67
2023/05/04 10:12:20;;;;;;;5.55;2.80;;;21.00;49.30;;;;;;5064524;28;45657;-67
2023/05/04 10:14:47;;;;;;;4.85;2.50;;;21.10;49.10;;;;;;5045128;28;45358;-66
2023/05/04 10:17:17;;;;;;;3.22;2.58;;;21.10;48.80;;;;;;5047978;28;45368;-68
2023/05/04 10:19:53;;;;;;;3.38;2.67;;;21.10;48.60;;;;;;5064145;28;45459;-67
2023/05/04 10:22:32;;;;;;;4.25;2.63;;;21.20;48.40;;;;;;5067325;28;46439;-65
2023/05/04 10:25:19;;;;;;;5.70;2.67;;;21.20;48.40;;;;;;5069368;28;45262;-66
2023/05/04 10:27:52;;;;;;;4.40;3.00;;;21.30;48.80;;;;;;5053349;28;45342;-66
2023/05/04 10:30:19;;;;;;;3.70;2.40;;;21.30;49.30;;;;;;5068694;28;45330;-66
2023/05/04 10:32:46;;;;;;;4.57;2.75;;;21.40;48.80;;;;;;5065509;28;46158;-66
2023/05/04 10:35:15;;;;;;;3.40;2.50;;;21.40;49.10;;;;;;5068115;28;45499;-66
2023/05/04 10:37:49;;;;;;;3.50;2.33;;;21.40;49.70;;;;;;5068422;28;45421;-66
2023/05/04 10:40:17;;;;;;;3.45;2.50;;;21.50;50.30;;;;;;5068371;28;45376;-66
2023/05/04 10:42:44;;;;;;;3.28;2.40;;;21.60;50.20;;;;;;5067836;28;47303;-66
2023/05/04 10:45:12;;;;;;;5.40;2.30;;;21.60;50.10;;;;;;5068045;28;45223;-66
2023/05/04 10:47:40;;;;;;;4.15;2.30;;;21.70;50.40;;;;;;5068104;28;45405;-67
2023/05/04 10:50:07;;;;;;;3.72;2.47;;;21.70;50.80;;;;;;5068348;28;45310;-66
2023/05/04 10:52:45;;;;;;;4.50;2.60;;;21.80;50.90;;;;;;5067859;28;47316;-66
2023/05/04 10:55:12;;;;;;;2.35;2.00;;;21.80;51.60;;;;;;5068048;28;45242;-67
2023/05/04 10:57:48;;;;;;;2.95;2.60;;;21.90;50.70;;;;;;5068018;28;45321;-66
2023/05/04 11:00:17;;;;;;;2.58;2.38;;;21.90;50.30;;;;;;5068072;28;45551;-67
2023/05/04 11:02:45;;;;;;;2.85;2.35;;;22.00;49.80;;;;;;5067669;28;46413;-67
2023/05/04 11:05:17;;;;;;;5.70;3.00;;;22.00;49.30;;;;;;5067975;28;45281;-67
2023/05/04 11:07:43;;;;;;;3.13;2.63;;;22.10;48.80;;;;;;5067900;28;45377;-67
2023/05/04 11:10:20;;;;;;;4.25;2.67;;;22.20;48.30;;;;;;5068030;28;45384;-66
2023/05/04 11:12:47;;;;;;;2.25;2.05;;;22.20;48.30;;;;;;5067451;28;47475;-66
2023/05/04 11:15:15;;;;;;;2.72;2.20;;;22.30;48.20;;;;;;5067538;28;45390;-67
2023/05/04 11:17:46;;;;;;;2.65;2.40;;;22.40;48.00;;;;;;5068045;28;45458;-66
2023/05/04 11:20:19;;;;;;;4.35;2.30;;;22.40;48.30;;;;;;5068269;28;45300;-66
2023/05/04 11:22:46;;;;;;;3.35;2.20;;;22.50;47.40;;;;;;5068219;28;46191;-67
2023/05/04 11:25:13;;;;;;;3.72;2.55;;;22.60;47.30;;;;;;5068029;28;45395;-67
2023/05/04 11:27:40;;;;;;;3.65;2.60;;;22.60;46.80;;;;;;5067465;28;45425;-66
2023/05/04 11:30:08;;;;;;;3.35;2.60;;;22.70;46.50;;;;;;5068425;28;45542;-67
2023/05/04 11:32:37;;;;;;;2.35;2.15;;;22.80;46.60;;;;;;5067586;28;47325;-67
2023/05/04 11:35:05;;;;;;;2.47;2.20;;;22.80;46.30;;;;;;5067771;28;45388;-66
2023/05/04 11:37:38;;;;;;;2.50;2.30;;;22.90;46.30;;;;;;5067988;28;45317;-67
2023/05/04 11:40:09;;;;;;;2.35;2.15;;;23.00;46.10;;;;;;5067579;28;45458;-66
2023/05/04 11:42:37;;;;;;;2.35;2.15;;;23.10;46.00;;;;;;5067019;28;45380;-66
2023/05/04 11:45:04;;;;;;;3.60;2.45;;;23.20;45.90;;;;;;5067139;28;45633;-66
2023/05/04 11:47:31;;;;;;;3.72;2.40;;;23.20;45.60;;;;;;5067296;28;45390;-67
2023/05/04 11:49:59;;;;;;;3.40;2.30;;;23.30;45.50;;;;;;5067487;28;45368;-67
2023/05/04 11:52:29;;;;;;;2.25;2.00;;;23.40;45.30;;;;;;5066801;28;45306;-66
2023/05/04 11:54:56;;;;;;;2.40;2.20;;;23.50;45.20;;;;;;5067049;28;45432;-66
2023/05/04 11:57:23;;;;;;;3.47;2.30;;;23.50;45.20;;;;;;5069861;28;45490;-64
2023/05/04 11:59:50;;;;;;;3.30;2.10;;;23.60;44.90;;;;;;5068755;28;45309;-64
2023/05/04 12:02:17;;;;;;;2.85;2.13;;;23.70;44.80;;;;;;5065698;28;45281;-64
2023/05/04 12:04:44;;;;;;;2.25;2.05;;;23.80;45.00;;;;;;5065444;28;45436;-65
2023/05/04 12:07:13;;;;;;;1.90;1.80;;;23.90;45.30;;;;;;5066721;28;45464;-65
2023/05/04 12:09:46;;;;;;;3.35;2.13;;;23.90;45.60;;;;;;5067127;28;45318;-66
2023/05/04 12:12:14;;;;;;;2.28;2.00;;;24.00;46.70;;;;;;5066633;28;46603;-66
2023/05/04 12:14:50;;;;;;;3.08;2.10;;;24.10;46.30;;;;;;5066872;28;45328;-66
2023/05/04 12:17:18;;;;;;;3.38;1.90;;;24.20;46.00;;;;;;5067154;28;45359;-65
2023/05/04 12:19:49;;;;;;;1.90;1.80;;;24.20;46.00;;;;;;5066892;28;45563;-65
2023/05/04 12:22:18;;;;;;;2.92;1.77;;;24.30;46.30;;;;;;5066558;28;47993;-65
2023/05/04 12:24:44;;;;;;;2.97;2.00;;;24.50;46.30;;;;;;5066559;28;45327;-65
2023/05/04 12:27:14;;;;;;;1.80;1.70;;;24.60;46.30;;;;;;5066436;28;45425;-66
2023/05/04 12:29:41;;;;;;;7.57;2.33;;;24.60;46.00;;;;;;5067049;28;45561;-66
2023/05/04 12:32:08;;;;;;;4.93;1.90;;;24.70;46.20;;;;;;5066255;28;46431;-65
2023/05/04 12:34:36;;;;;;;5.20;2.03;;;24.80;46.00;;;;;;5066438;28;45465;-65
2023/05/04 12:37:03;;;;;;;4.03;1.90;;;24.90;45.90;;;;;;5066455;28;45329;-66
2023/05/04 12:39:33;;;;;;;2.58;2.10;;;25.00;45.70;;;;;;5065801;28;45359;-66
2023/05/04 12:41:59;;;;;;;3.63;2.08;;;25.10;44.00;;;;;;5065548;28;45640;-65
2023/05/04 12:44:27;;;;;;;5.22;2.00;;;25.10;43.30;;;;;;5066077;28;45386;-66
2023/05/04 12:46:54;;;;;;;6.60;2.03;;;25.20;42.00;;;;;;5066200;28;45331;-66
2023/05/04 12:49:20;;;;;;;2.38;2.17;;;25.30;42.50;;;;;;5066466;28;45269;-66